createdAt,value
2018-07-15T00:02:13.534Z,15.80
2018-07-15T00:04:42.011Z,15.80
2018-07-15T00:07:10.843Z,15.70
2018-07-15T00:09:39.315Z,15.70
2018-07-15T00:12:08.255Z,15.60
2018-07-15T00:14:36.767Z,15.60
2018-07-15T00:17:05.668Z,15.50
2018-07-15T00:19:34.283Z,15.40
2018-07-15T00:22:02.767Z,15.40
2018-07-15T00:24:31.264Z,15.40
2018-07-15T00:27:00.311Z,15.30
2018-07-15T00:29:28.794Z,15.30
2018-07-15T00:33:21.961Z,15.30
2018-07-15T00:35:50.510Z,15.20
2018-07-15T00:38:19.331Z,15.10
2018-07-15T00:40:47.816Z,15.10
2018-07-15T00:43:16.350Z,15.10
2018-07-15T00:45:44.959Z,15.00
2018-07-15T00:48:13.602Z,15.00
2018-07-15T00:50:42.099Z,15.00
2018-07-15T00:53:10.608Z,15.00
2018-07-15T00:55:39.087Z,15.00
2018-07-15T00:58:07.602Z,14.90
2018-07-15T01:00:41.199Z,14.90
2018-07-15T01:03:10.039Z,14.90
2018-07-15T01:05:38.622Z,14.80
2018-07-15T01:08:07.272Z,14.80
2018-07-15T01:10:35.751Z,14.70
2018-07-15T01:13:04.243Z,14.70
2018-07-15T01:15:32.727Z,14.60
2018-07-15T01:18:01.219Z,14.70
2018-07-15T01:20:29.682Z,14.70
2018-07-15T01:22:58.182Z,14.60
2018-07-15T01:25:26.667Z,14.60
2018-07-15T01:27:55.180Z,14.60
2018-07-15T01:32:52.474Z,14.50
2018-07-15T01:35:20.971Z,14.40
2018-07-15T01:37:49.532Z,14.40
2018-07-15T01:40:18.014Z,14.40
2018-07-15T01:42:46.595Z,14.40
2018-07-15T01:45:15.098Z,14.40
2018-07-15T01:47:43.573Z,14.40
2018-07-15T01:50:12.092Z,14.40
2018-07-15T01:52:40.563Z,14.40
2018-07-15T01:55:09.054Z,14.40
2018-07-15T01:57:37.540Z,14.40
2018-07-15T02:00:06.900Z,14.40
2018-07-15T02:02:35.363Z,14.40
2018-07-15T02:05:04.319Z,14.30
2018-07-15T02:07:32.827Z,14.30
2018-07-15T02:10:01.365Z,14.30
2018-07-15T02:12:30.006Z,14.20
2018-07-15T02:14:58.483Z,14.10
2018-07-15T02:17:26.991Z,14.10
2018-07-15T02:19:55.511Z,14.10
2018-07-15T02:22:24.012Z,14.10
2018-07-15T02:24:52.535Z,14.00
2018-07-15T02:27:21.005Z,14.10
2018-07-15T02:29:49.519Z,14.00
2018-07-15T02:32:18.011Z,14.00
2018-07-15T02:34:46.512Z,13.90
2018-07-15T02:37:15.007Z,13.90
2018-07-15T02:39:43.536Z,14.00
2018-07-15T02:42:12.039Z,14.10
2018-07-15T02:44:40.558Z,14.00
2018-07-15T02:47:09.055Z,14.00
2018-07-15T02:49:37.543Z,14.00
2018-07-15T02:52:06.184Z,14.00
2018-07-15T02:54:35.029Z,13.90
2018-07-15T02:57:03.514Z,13.90
2018-07-15T02:59:31.991Z,13.90
2018-07-15T03:02:00.477Z,13.80
2018-07-15T03:04:28.953Z,13.80
2018-07-15T03:06:57.458Z,13.80
2018-07-15T03:09:25.919Z,13.70
2018-07-15T03:11:54.405Z,13.70
2018-07-15T03:14:22.892Z,13.70
2018-07-15T03:16:51.400Z,13.70
2018-07-15T03:19:19.953Z,13.60
2018-07-15T03:21:48.467Z,13.60
2018-07-15T03:24:17.479Z,13.50
2018-07-15T03:26:45.971Z,13.50
2018-07-15T03:29:14.434Z,13.50
2018-07-15T03:31:42.905Z,13.50
2018-07-15T03:34:11.580Z,13.50
2018-07-15T03:36:40.084Z,13.50
2018-07-15T03:39:09.465Z,13.40
2018-07-15T03:41:37.966Z,13.40
2018-07-15T03:44:07.130Z,13.40
2018-07-15T03:46:35.736Z,13.40
2018-07-15T03:50:06.672Z,13.40
2018-07-15T03:52:35.175Z,13.40
2018-07-15T03:55:03.700Z,13.50
2018-07-15T03:57:32.232Z,13.50
2018-07-15T04:00:00.695Z,13.50
2018-07-15T04:02:29.195Z,13.50
2018-07-15T04:04:57.711Z,13.60
2018-07-15T04:07:26.191Z,13.60
2018-07-15T04:09:54.670Z,13.70
2018-07-15T04:12:23.231Z,13.70
2018-07-15T04:14:51.719Z,13.70
2018-07-15T04:17:20.220Z,13.70
2018-07-15T04:19:48.690Z,13.80
2018-07-15T04:22:17.503Z,13.80
2018-07-15T04:24:45.987Z,13.80
2018-07-15T04:27:14.461Z,13.90
2018-07-15T04:29:42.944Z,13.90
2018-07-15T04:32:11.439Z,14.00
2018-07-15T04:34:39.911Z,14.00
2018-07-15T04:37:08.560Z,14.00
2018-07-15T04:39:37.063Z,14.10
2018-07-15T04:42:05.919Z,14.10
2018-07-15T04:44:34.418Z,14.20
2018-07-15T04:47:02.903Z,14.20
2018-07-15T04:49:31.400Z,14.30
2018-07-15T04:51:59.866Z,14.30
2018-07-15T04:54:28.355Z,14.40
2018-07-15T04:56:56.867Z,14.50
2018-07-15T04:59:25.371Z,14.50
2018-07-15T05:01:54.093Z,14.60
2018-07-15T05:04:22.723Z,14.60
2018-07-15T05:06:51.208Z,14.70
2018-07-15T05:09:19.682Z,14.70
2018-07-15T05:11:48.175Z,14.80
2018-07-15T05:14:16.652Z,14.80
2018-07-15T05:16:45.142Z,14.90
2018-07-15T05:19:13.616Z,14.90
2018-07-15T05:21:42.143Z,15.00
2018-07-15T05:26:38.795Z,15.10
2018-07-15T05:29:07.271Z,15.20
2018-07-15T05:31:35.759Z,15.20
2018-07-15T05:34:04.264Z,15.30
2018-07-15T05:36:32.797Z,15.40
2018-07-15T05:39:01.267Z,15.40
2018-07-15T05:41:29.770Z,15.50
2018-07-15T05:43:58.273Z,15.60
2018-07-15T05:46:27.351Z,15.70
2018-07-15T05:48:55.827Z,15.70
2018-07-15T05:51:24.346Z,15.80
2018-07-15T05:53:52.863Z,15.90
2018-07-15T05:56:21.372Z,16.00
2018-07-15T05:58:50.479Z,16.10
2018-07-15T06:01:18.980Z,16.30
2018-07-15T06:03:47.440Z,16.40
2018-07-15T06:07:18.319Z,16.70
2018-07-15T06:09:46.803Z,16.90
2018-07-15T06:12:15.308Z,17.50
2018-07-15T06:14:43.778Z,17.80
2018-07-15T06:17:12.408Z,18.30
2018-07-15T06:19:41.035Z,19.00
2018-07-15T06:22:09.544Z,21.40
2018-07-15T06:24:38.009Z,22.30
2018-07-15T06:27:06.519Z,24.20
2018-07-15T06:29:35.023Z,28.30
2018-07-15T06:32:03.515Z,31.30
2018-07-15T06:34:32.012Z,33.50
2018-07-15T06:37:01.112Z,33.50
2018-07-15T06:39:29.602Z,35.40
2018-07-15T06:41:58.093Z,36.40
2018-07-15T06:44:26.644Z,36.50
2018-07-15T06:46:55.113Z,36.60
2018-07-15T06:49:24.283Z,36.80
2018-07-15T06:51:53.507Z,36.20
2018-07-15T06:54:22.556Z,37.00
2018-07-15T06:56:51.607Z,36.70
2018-07-15T06:59:20.647Z,36.80
2018-07-15T07:01:49.967Z,36.80
2018-07-15T07:04:19.048Z,37.10
2018-07-15T07:06:48.436Z,36.70
2018-07-15T07:09:17.546Z,36.40
2018-07-15T07:11:46.597Z,37.00
2018-07-15T07:14:15.743Z,35.30
2018-07-15T07:16:44.913Z,35.20
2018-07-15T07:19:14.019Z,35.30
2018-07-15T07:21:43.082Z,34.00
2018-07-15T07:24:12.152Z,32.20
2018-07-15T07:26:41.200Z,31.70
2018-07-15T07:29:10.265Z,31.80
2018-07-15T07:31:39.303Z,31.40
2018-07-15T07:34:08.347Z,30.10
2018-07-15T07:36:37.419Z,29.10
2018-07-15T07:39:07.039Z,28.60
2018-07-15T07:41:36.327Z,27.80
2018-07-15T07:44:05.475Z,27.10
2018-07-15T07:46:34.512Z,26.50
2018-07-15T07:49:03.920Z,26.40
2018-07-15T07:51:32.416Z,25.80
2018-07-15T07:54:00.934Z,25.80
2018-07-15T07:56:29.395Z,25.50
2018-07-15T07:58:57.919Z,25.70
2018-07-15T08:01:26.430Z,26.50
2018-07-15T08:06:23.163Z,29.00
2018-07-15T08:08:52.192Z,29.60
2018-07-15T08:11:21.270Z,30.70
2018-07-15T08:13:50.378Z,31.20
2018-07-15T08:16:19.442Z,31.70
2018-07-15T08:18:48.505Z,32.00
2018-07-15T08:21:17.571Z,32.10
2018-07-15T08:23:46.647Z,31.60
2018-07-15T08:26:15.731Z,31.70
2018-07-15T08:28:44.763Z,32.30
2018-07-15T08:31:16.081Z,32.50
2018-07-15T08:33:45.702Z,32.20
2018-07-15T08:36:14.883Z,31.50
2018-07-15T08:38:44.558Z,31.80
2018-07-15T08:41:13.697Z,31.40
2018-07-15T08:43:42.740Z,31.80
2018-07-15T08:46:11.804Z,31.10
2018-07-15T08:48:40.899Z,31.20
2018-07-15T08:51:10.078Z,31.20
2018-07-15T08:53:39.253Z,31.00
2018-07-15T08:56:08.338Z,30.70
2018-07-15T08:58:37.428Z,30.10
2018-07-15T09:01:06.556Z,29.80
2018-07-15T09:03:35.778Z,29.10
2018-07-15T09:06:05.039Z,28.20
2018-07-15T09:08:35.404Z,28.00
2018-07-15T09:11:04.506Z,27.80
2018-07-15T09:13:33.623Z,27.50
2018-07-15T09:16:02.707Z,27.50
2018-07-15T09:18:31.775Z,27.30
2018-07-15T09:21:00.860Z,27.40
2018-07-15T09:23:37.532Z,27.10
2018-07-15T09:28:50.138Z,26.80
2018-07-15T09:31:22.797Z,26.80
2018-07-15T09:33:53.922Z,27.00
2018-07-15T09:36:24.049Z,26.90
2018-07-15T09:41:25.641Z,26.60
2018-07-15T09:43:54.230Z,26.50
2018-07-15T09:46:22.768Z,26.40
2018-07-15T09:48:51.256Z,26.40
2018-07-15T09:51:19.754Z,26.20
2018-07-15T09:53:48.250Z,26.20
2018-07-15T09:56:16.745Z,26.10
2018-07-15T09:58:45.242Z,26.10
2018-07-15T10:01:13.736Z,26.00
2018-07-15T10:03:42.255Z,26.00
2018-07-15T10:06:10.743Z,26.00
2018-07-15T10:08:39.270Z,25.90
2018-07-15T10:11:07.816Z,25.90
2018-07-15T10:13:36.410Z,25.90
2018-07-15T10:16:05.591Z,25.80
2018-07-15T10:18:34.098Z,25.80
2018-07-15T10:21:02.603Z,25.90
2018-07-15T10:23:31.087Z,25.80
2018-07-15T10:25:59.595Z,25.90
2018-07-15T10:28:28.068Z,25.90
2018-07-15T10:30:56.595Z,25.70
2018-07-15T10:33:25.071Z,25.60
2018-07-15T10:35:53.564Z,25.50
2018-07-15T10:38:22.052Z,25.50
2018-07-15T10:40:50.543Z,25.30
2018-07-15T10:43:19.035Z,25.30
2018-07-15T10:45:47.546Z,25.50
2018-07-15T10:48:16.067Z,25.50
2018-07-15T10:50:45.389Z,25.50
2018-07-15T10:53:14.396Z,25.70
2018-07-15T10:55:43.456Z,25.80
2018-07-15T10:58:11.966Z,26.00
2018-07-15T11:00:41.303Z,26.00
2018-07-15T11:03:10.959Z,26.20
2018-07-15T11:05:39.461Z,26.30
2018-07-15T11:08:08.527Z,26.10
2018-07-15T11:10:37.795Z,26.20
2018-07-15T11:13:06.684Z,26.30
2018-07-15T11:15:35.439Z,26.10
2018-07-15T11:18:04.636Z,26.10
2018-07-15T11:20:33.179Z,26.20
2018-07-15T11:23:01.695Z,26.00
2018-07-15T11:25:30.498Z,26.10
2018-07-15T11:27:59.224Z,26.20
2018-07-15T11:30:27.714Z,26.20
2018-07-15T11:32:56.211Z,26.20
2018-07-15T11:35:24.755Z,26.00
2018-07-15T11:37:53.244Z,26.00
2018-07-15T11:40:24.328Z,26.10
2018-07-15T11:42:52.849Z,26.20
2018-07-15T11:45:21.365Z,26.40
2018-07-15T11:47:49.875Z,26.40
2018-07-15T11:50:18.483Z,26.30
2018-07-15T11:52:47.047Z,26.10
2018-07-15T11:55:17.841Z,26.20
2018-07-15T11:57:46.703Z,26.10
2018-07-15T12:00:15.677Z,26.10
2018-07-15T12:02:44.155Z,25.90
2018-07-15T12:05:12.750Z,26.00
2018-07-15T12:07:41.369Z,26.00
2018-07-15T12:10:10.096Z,26.00
2018-07-15T12:12:38.890Z,26.10
2018-07-15T12:15:07.415Z,26.00
2018-07-15T12:17:35.936Z,26.00
2018-07-15T12:20:04.811Z,26.00
2018-07-15T12:22:33.374Z,26.10
2018-07-15T12:25:03.068Z,26.10
2018-07-15T12:27:31.627Z,26.00
2018-07-15T12:30:00.167Z,26.10
2018-07-15T12:32:28.693Z,26.10
2018-07-15T12:34:57.188Z,26.00
2018-07-15T12:37:27.111Z,26.00
2018-07-15T12:39:56.343Z,25.90
2018-07-15T12:42:24.898Z,25.90
2018-07-15T12:44:53.378Z,25.80
2018-07-15T12:47:22.232Z,25.80
2018-07-15T12:49:50.772Z,25.80
2018-07-15T12:52:19.275Z,25.80
2018-07-15T12:54:47.793Z,26.00
2018-07-15T12:57:16.300Z,26.00
2018-07-15T12:59:44.794Z,26.00
2018-07-15T13:02:13.639Z,25.80
2018-07-15T13:04:42.122Z,25.80
2018-07-15T13:07:10.651Z,25.80
2018-07-15T13:12:07.387Z,25.80
2018-07-15T13:14:35.872Z,25.80
2018-07-15T13:17:04.972Z,25.80
2018-07-15T13:19:33.493Z,25.90
2018-07-15T13:22:02.012Z,25.80
2018-07-15T13:24:31.523Z,25.80
2018-07-15T13:27:00.367Z,25.90
2018-07-15T13:29:28.882Z,25.90
2018-07-15T13:31:57.423Z,25.80
2018-07-15T13:34:25.936Z,25.80
2018-07-15T13:36:54.428Z,25.70
2018-07-15T13:39:22.931Z,25.70
2018-07-15T13:41:51.491Z,25.60
2018-07-15T13:44:20.115Z,25.60
2018-07-15T13:46:48.631Z,25.50
2018-07-15T13:49:17.127Z,25.70
2018-07-15T13:51:45.634Z,25.70
2018-07-15T13:54:14.190Z,25.80
2018-07-15T13:56:42.710Z,25.70
2018-07-15T13:59:11.211Z,25.70
2018-07-15T14:01:40.611Z,25.80
2018-07-15T14:04:09.127Z,25.80
2018-07-15T14:06:37.758Z,25.80
2018-07-15T14:09:06.620Z,25.60
2018-07-15T14:11:35.100Z,25.60
2018-07-15T14:14:03.980Z,25.50
2018-07-15T14:16:32.480Z,25.50
2018-07-15T14:19:01.019Z,25.60
2018-07-15T14:21:29.688Z,25.60
2018-07-15T14:23:58.310Z,25.70
2018-07-15T14:26:26.936Z,25.70
2018-07-15T14:28:55.588Z,25.80
2018-07-15T14:31:24.080Z,25.80
2018-07-15T14:33:52.571Z,25.90
2018-07-15T14:36:21.258Z,25.80
2018-07-15T14:38:50.113Z,25.70
2018-07-15T14:41:18.632Z,25.60
2018-07-15T14:43:47.205Z,25.70
2018-07-15T14:46:15.743Z,25.60
2018-07-15T14:48:44.244Z,25.60
2018-07-15T14:51:12.780Z,25.70
2018-07-15T14:53:41.274Z,25.70
2018-07-15T14:56:11.299Z,25.80
2018-07-15T14:58:40.662Z,25.80
2018-07-15T15:01:09.186Z,25.80
2018-07-15T15:03:37.683Z,25.80
2018-07-15T15:06:06.266Z,25.80
2018-07-15T15:08:34.755Z,25.80
2018-07-15T15:11:03.302Z,25.80
2018-07-15T15:13:31.812Z,25.80
2018-07-15T15:16:00.334Z,25.60
2018-07-15T15:18:28.812Z,25.80
2018-07-15T15:20:57.375Z,25.70
2018-07-15T15:23:25.835Z,25.70
2018-07-15T15:25:54.327Z,25.70
2018-07-15T15:28:22.848Z,25.80
2018-07-15T15:33:19.556Z,25.80
2018-07-15T15:35:48.060Z,25.80
2018-07-15T15:38:17.172Z,25.80
2018-07-15T15:40:45.734Z,25.90
2018-07-15T15:43:14.239Z,25.80
2018-07-15T15:45:42.732Z,25.70
2018-07-15T15:50:39.455Z,25.70
2018-07-15T15:53:07.984Z,25.70
2018-07-15T15:55:36.503Z,25.70
2018-07-15T15:58:05.497Z,25.60
2018-07-15T16:03:02.371Z,25.60
2018-07-15T16:05:32.023Z,25.70
2018-07-15T16:08:00.531Z,25.60
2018-07-15T16:10:28.991Z,25.60
2018-07-15T16:13:01.761Z,25.70
2018-07-15T16:15:30.328Z,25.70
2018-07-15T16:17:58.858Z,25.80
2018-07-15T16:20:27.418Z,25.60
2018-07-15T16:22:55.928Z,25.70
2018-07-15T16:25:24.422Z,25.60
2018-07-15T16:27:52.950Z,25.60
2018-07-15T16:30:21.447Z,25.60
2018-07-15T16:32:49.977Z,25.70
2018-07-15T16:35:18.468Z,25.60
2018-07-15T16:37:47.032Z,25.60
2018-07-15T16:40:15.603Z,25.60
2018-07-15T16:42:44.482Z,25.50
2018-07-15T16:45:12.992Z,25.50
2018-07-15T16:47:41.473Z,25.50
2018-07-15T16:50:10.355Z,25.50
2018-07-15T16:52:38.855Z,25.50
2018-07-15T16:55:07.358Z,25.50
2018-07-15T16:57:35.906Z,25.50
2018-07-15T17:02:32.679Z,25.40
2018-07-15T17:05:01.178Z,25.40
2018-07-15T17:07:29.780Z,25.40
2018-07-15T17:09:58.306Z,25.30
2018-07-15T17:14:54.989Z,25.20
2018-07-15T17:17:23.477Z,25.20
2018-07-15T17:19:51.978Z,25.10
2018-07-15T17:22:20.478Z,25.00
2018-07-15T17:24:48.995Z,25.10
2018-07-15T17:30:16.299Z,25.10
2018-07-15T17:32:45.162Z,25.00
2018-07-15T17:35:13.665Z,25.00
2018-07-15T17:37:42.146Z,24.90
2018-07-15T17:40:10.687Z,24.80
2018-07-15T17:42:39.166Z,24.80
2018-07-15T17:45:07.691Z,24.80
2018-07-15T17:47:36.176Z,24.80
2018-07-15T17:50:04.807Z,24.80
2018-07-15T17:52:33.323Z,24.70
2018-07-15T17:55:01.835Z,24.70
2018-07-15T17:57:30.536Z,24.60
2018-07-15T17:59:59.057Z,24.50
2018-07-15T18:02:27.554Z,24.40
2018-07-15T18:04:56.111Z,24.50
2018-07-15T18:07:24.771Z,24.50
2018-07-15T18:09:53.239Z,24.50
2018-07-15T18:12:21.738Z,24.40
2018-07-15T18:14:50.232Z,24.40
2018-07-15T18:17:18.725Z,24.30
2018-07-15T18:19:47.220Z,24.30
2018-07-15T18:22:46.419Z,24.30
2018-07-15T18:25:14.925Z,24.30
2018-07-15T18:27:43.415Z,24.20
2018-07-15T18:30:11.903Z,24.10
2018-07-15T18:32:40.403Z,24.10
2018-07-15T18:35:08.886Z,24.00
2018-07-15T18:37:37.403Z,24.00
2018-07-15T18:40:05.918Z,23.90
2018-07-15T18:42:34.406Z,23.90
2018-07-15T18:45:03.045Z,23.80
2018-07-15T18:47:31.592Z,23.70
2018-07-15T18:50:01.721Z,23.60
2018-07-15T18:52:30.227Z,23.50
2018-07-15T18:54:58.694Z,23.40
2018-07-15T18:57:27.234Z,23.30
2018-07-15T18:59:55.719Z,23.20
2018-07-15T19:02:24.206Z,23.10
2018-07-15T19:04:53.259Z,23.00
2018-07-15T19:07:21.760Z,22.90
2018-07-15T19:09:50.230Z,22.80
2018-07-15T19:12:18.719Z,22.70
2018-07-15T19:14:47.187Z,22.60
2018-07-15T19:17:15.714Z,22.50
2018-07-15T19:19:44.192Z,22.40
2018-07-15T19:22:12.700Z,22.30
2018-07-15T19:24:41.176Z,22.20
2018-07-15T19:27:09.905Z,22.20
2018-07-15T19:29:38.379Z,22.10
2018-07-15T19:32:06.943Z,22.00
2018-07-15T19:34:35.443Z,21.90
2018-07-15T19:37:03.945Z,21.80
2018-07-15T19:39:32.472Z,21.70
2018-07-15T19:42:00.964Z,21.60
2018-07-15T19:44:29.848Z,21.50
2018-07-15T19:46:58.347Z,21.40
2018-07-15T19:49:26.853Z,21.30
2018-07-15T19:51:55.369Z,21.20
2018-07-15T19:54:23.879Z,21.10
2018-07-15T19:56:52.413Z,21.00
2018-07-15T19:59:21.262Z,20.90
2018-07-15T20:01:49.791Z,20.80
2018-07-15T20:04:18.650Z,20.70
2018-07-15T20:06:47.157Z,20.60
2018-07-15T20:09:15.878Z,20.50
2018-07-15T20:11:44.365Z,20.40
2018-07-15T20:14:12.864Z,20.40
2018-07-15T20:16:41.399Z,20.30
2018-07-15T20:19:09.915Z,20.20
2018-07-15T20:21:38.427Z,20.20
2018-07-15T20:24:06.936Z,20.10
2018-07-15T20:26:35.427Z,20.10
2018-07-15T20:29:03.908Z,20.10
2018-07-15T20:31:32.444Z,20.00
2018-07-15T20:34:00.977Z,20.00
2018-07-15T20:36:29.648Z,19.90
2018-07-15T20:38:58.129Z,19.90
2018-07-15T20:41:26.641Z,19.80
2018-07-15T20:43:55.122Z,19.80
2018-07-15T20:46:23.616Z,19.70
2018-07-15T20:48:52.100Z,19.70
2018-07-15T20:51:20.621Z,19.60
2018-07-15T20:53:49.096Z,19.60
2018-07-15T20:56:17.634Z,19.50
2018-07-15T20:58:46.256Z,19.40
2018-07-15T21:01:14.738Z,19.30
2018-07-15T21:03:43.263Z,19.30
2018-07-15T21:06:11.809Z,19.20
2018-07-15T21:08:40.311Z,19.10
2018-07-15T21:11:08.823Z,19.10
2018-07-15T21:13:37.336Z,19.10
2018-07-15T21:16:06.201Z,19.10
2018-07-15T21:18:34.669Z,19.00
2018-07-15T21:21:03.204Z,19.00
2018-07-15T21:23:31.671Z,18.90
2018-07-15T21:26:00.384Z,18.90
2018-07-15T21:28:28.862Z,18.90
2018-07-15T21:30:57.370Z,18.80
2018-07-15T21:33:25.875Z,18.80
2018-07-15T21:35:54.376Z,18.80
2018-07-15T21:38:22.883Z,18.70
2018-07-15T21:40:51.388Z,18.70
2018-07-15T21:43:20.238Z,18.70
2018-07-15T21:45:48.900Z,18.60
2018-07-15T21:48:17.500Z,18.60
2018-07-15T21:50:46.008Z,18.60
2018-07-15T21:53:15.138Z,18.50
2018-07-15T21:55:43.648Z,18.50
2018-07-15T21:58:12.147Z,18.50
2018-07-15T22:00:40.616Z,18.40
2018-07-15T22:03:09.107Z,18.40
2018-07-15T22:05:37.922Z,18.40
2018-07-15T22:10:19.735Z,18.40
2018-07-15T22:12:48.227Z,18.40
2018-07-15T22:15:16.699Z,18.30
2018-07-15T22:17:45.190Z,18.30
2018-07-15T22:20:14.035Z,18.30
2018-07-15T22:22:42.538Z,18.30
2018-07-15T22:25:11.052Z,18.20
2018-07-15T22:27:39.512Z,18.20
2018-07-15T22:30:08.055Z,18.20
2018-07-15T22:32:36.540Z,18.10
2018-07-15T22:35:05.121Z,18.10
2018-07-15T22:37:33.608Z,18.10
2018-07-15T22:40:02.091Z,18.10
2018-07-15T22:42:30.582Z,18.00
2018-07-15T22:44:59.088Z,18.00
2018-07-15T22:47:27.593Z,18.00
2018-07-15T22:49:56.090Z,18.00
2018-07-15T22:52:24.614Z,17.90
2018-07-15T22:54:53.150Z,17.90
2018-07-15T22:59:49.819Z,17.80
2018-07-15T23:02:18.317Z,17.80
2018-07-15T23:05:58.853Z,17.80
2018-07-15T23:08:28.419Z,17.70
2018-07-15T23:10:57.340Z,17.70
2018-07-15T23:13:26.198Z,17.70
2018-07-15T23:15:54.765Z,17.70
2018-07-15T23:18:23.286Z,17.70
2018-07-15T23:20:52.211Z,17.60
2018-07-15T23:23:20.668Z,17.60
2018-07-15T23:25:49.156Z,17.60
2018-07-15T23:28:17.930Z,17.50
2018-07-15T23:30:46.633Z,17.50
2018-07-15T23:33:15.111Z,17.50
2018-07-15T23:35:43.955Z,17.40
2018-07-15T23:38:12.768Z,17.40
2018-07-15T23:40:42.477Z,17.40
2018-07-15T23:43:11.315Z,17.30
2018-07-15T23:45:39.801Z,17.30
2018-07-15T23:48:08.640Z,17.30
2018-07-15T23:50:37.499Z,17.30
2018-07-15T23:53:06.019Z,17.20
2018-07-15T23:55:34.857Z,17.20
2018-07-15T23:58:03.368Z,17.10
